createdAt,value
2023-02-10T00:01:35.776Z,37.00
2023-02-10T00:04:03.420Z,38.53
2023-02-10T00:06:30.630Z,44.03
2023-02-10T00:09:00.590Z,36.55
2023-02-10T00:11:47.709Z,36.88
2023-02-10T00:14:17.411Z,45.25
2023-02-10T00:16:44.629Z,42.42
2023-02-10T00:19:11.729Z,35.35
2023-02-10T00:21:38.615Z,33.17
2023-02-10T00:24:05.933Z,37.90
2023-02-10T00:26:32.879Z,35.92
2023-02-10T00:28:59.813Z,37.63
2023-02-10T00:31:26.826Z,48.75
2023-02-10T00:33:54.139Z,46.88
2023-02-10T00:36:22.673Z,33.70
2023-02-10T00:38:53.010Z,37.38
2023-02-10T00:41:22.794Z,39.63
2023-02-10T00:43:50.143Z,40.75
2023-02-10T00:46:20.307Z,40.95
2023-02-10T00:48:47.654Z,38.20
2023-02-10T00:51:16.129Z,41.65
2023-02-10T00:53:43.898Z,44.17
2023-02-10T00:56:12.799Z,46.22
2023-02-10T00:58:39.958Z,44.85
2023-02-10T01:01:07.365Z,44.25
2023-02-10T01:03:35.147Z,44.83
2023-02-10T01:06:03.469Z,44.25
2023-02-10T01:08:30.674Z,44.17
2023-02-10T01:11:07.443Z,44.60
2023-02-10T01:13:36.258Z,39.97
2023-02-10T01:16:14.817Z,43.65
2023-02-10T01:18:43.332Z,46.95
2023-02-10T01:21:20.172Z,40.47
2023-02-10T01:23:48.495Z,43.45
2023-02-10T01:26:16.139Z,39.78
2023-02-10T01:28:43.867Z,45.90
2023-02-10T01:31:20.453Z,47.33
2023-02-10T01:33:50.813Z,41.28
2023-02-10T01:36:20.617Z,43.13
2023-02-10T01:38:47.521Z,41.88
2023-02-10T01:41:17.517Z,42.40
2023-02-10T01:44:07.333Z,41.25
2023-02-10T01:46:36.365Z,39.40
2023-02-10T01:49:15.521Z,43.83
2023-02-10T01:51:55.830Z,41.92
2023-02-10T01:54:31.230Z,43.95
2023-02-10T01:56:59.327Z,42.65
2023-02-10T01:59:31.553Z,42.72
2023-02-10T02:02:00.768Z,41.15
2023-02-10T02:04:28.193Z,41.60
2023-02-10T02:06:55.209Z,46.67
2023-02-10T02:09:22.100Z,42.10
2023-02-10T02:12:10.893Z,38.33
2023-02-10T02:14:46.963Z,42.45
2023-02-10T02:17:25.581Z,41.72
2023-02-10T02:20:55.085Z,40.70
2023-02-10T02:23:50.985Z,52.63
2023-02-10T02:26:45.329Z,39.90
2023-02-10T02:29:40.396Z,42.10
2023-02-10T02:32:18.421Z,49.47
2023-02-10T02:35:03.382Z,44.53
2023-02-10T02:37:34.680Z,40.50
2023-02-10T02:40:03.104Z,45.63
2023-02-10T02:42:32.635Z,41.92
2023-02-10T02:45:12.890Z,43.08
2023-02-10T02:48:06.970Z,43.72
2023-02-10T02:50:43.673Z,43.47
2023-02-10T02:53:38.134Z,43.60
2023-02-10T02:56:16.886Z,43.08
2023-02-10T02:59:17.358Z,43.03
2023-02-10T03:02:00.225Z,39.10
2023-02-10T03:04:34.799Z,37.50
2023-02-10T03:07:03.286Z,46.70
2023-02-10T03:09:30.859Z,42.00
2023-02-10T03:11:58.460Z,47.97
2023-02-10T03:14:25.685Z,48.38
2023-02-10T03:16:52.742Z,47.35
2023-02-10T03:19:19.967Z,40.72
2023-02-10T03:21:48.183Z,42.78
2023-02-10T03:24:15.783Z,46.28
2023-02-10T03:26:42.780Z,52.65
2023-02-10T03:29:13.802Z,43.25
2023-02-10T03:31:40.864Z,43.28
2023-02-10T03:34:08.018Z,48.03
2023-02-10T03:36:35.384Z,42.75
2023-02-10T03:39:04.286Z,41.50
2023-02-10T03:41:31.417Z,38.42
2023-02-10T03:43:58.436Z,41.78
2023-02-10T03:46:25.369Z,43.97
2023-02-10T03:48:52.237Z,43.15
2023-02-10T03:51:19.237Z,42.05
2023-02-10T03:53:46.155Z,37.55
2023-02-10T03:56:13.040Z,42.60
2023-02-10T03:58:39.935Z,44.03
2023-02-10T04:01:14.040Z,46.67
2023-02-10T04:03:41.407Z,41.65
2023-02-10T04:06:09.251Z,45.10
2023-02-10T04:08:36.982Z,43.30
2023-02-10T04:11:04.892Z,38.13
2023-02-10T04:13:31.808Z,40.55
2023-02-10T04:16:08.688Z,42.25
2023-02-10T04:18:36.077Z,40.55
2023-02-10T04:21:04.868Z,39.10
2023-02-10T04:23:32.250Z,42.00
2023-02-10T04:26:00.155Z,38.13
2023-02-10T04:28:28.070Z,43.92
2023-02-10T04:30:58.493Z,46.00
2023-02-10T04:33:26.018Z,46.30
2023-02-10T04:35:54.863Z,46.95
2023-02-10T04:38:22.906Z,39.45
2023-02-10T04:40:49.770Z,41.15
2023-02-10T04:43:16.726Z,33.92
2023-02-10T04:45:43.795Z,40.38
2023-02-10T04:48:10.736Z,41.67
2023-02-10T04:50:38.866Z,39.65
2023-02-10T04:53:06.561Z,35.08
2023-02-10T04:55:34.837Z,38.58
2023-02-10T04:58:02.134Z,38.08
2023-02-10T05:00:29.529Z,42.30
2023-02-10T05:02:57.533Z,43.10
2023-02-10T05:05:26.255Z,40.92
2023-02-10T05:07:53.672Z,44.80
2023-02-10T05:10:21.250Z,43.20
2023-02-10T05:12:48.555Z,41.60
2023-02-10T05:15:16.417Z,40.13
2023-02-10T05:17:43.477Z,45.17
2023-02-10T05:20:11.407Z,38.85
2023-02-10T05:22:40.347Z,43.92
2023-02-10T05:25:08.806Z,44.45
2023-02-10T05:27:36.900Z,35.83
2023-02-10T05:30:07.336Z,38.15
2023-02-10T05:32:34.860Z,43.42
2023-02-10T05:35:01.721Z,37.63
2023-02-10T05:37:29.914Z,45.20
2023-02-10T05:39:57.083Z,48.33
2023-02-10T05:42:24.321Z,41.50
2023-02-10T05:44:51.238Z,46.35
2023-02-10T05:47:18.201Z,45.08
2023-02-10T05:49:45.097Z,42.50
2023-02-10T05:52:12.049Z,44.25
2023-02-10T05:54:41.014Z,46.70
2023-02-10T05:57:08.505Z,41.00
2023-02-10T05:59:35.584Z,37.50
2023-02-10T06:02:02.543Z,41.10
2023-02-10T06:04:29.534Z,50.30
2023-02-10T06:06:56.555Z,47.53
2023-02-10T06:09:24.097Z,43.47
2023-02-10T06:11:52.758Z,45.50
2023-02-10T06:14:20.344Z,51.75
2023-02-10T06:16:47.390Z,49.03
2023-02-10T06:19:14.363Z,47.45
2023-02-10T06:21:41.303Z,52.80
2023-02-10T06:24:08.418Z,48.35
2023-02-10T06:26:35.417Z,53.40
2023-02-10T06:29:02.428Z,53.63
2023-02-10T06:31:29.586Z,60.03
2023-02-10T06:33:56.507Z,54.05
2023-02-10T06:36:23.583Z,63.90
2023-02-10T06:38:50.464Z,63.40
2023-02-10T06:41:17.474Z,55.92
2023-02-10T06:43:44.417Z,49.97
2023-02-10T06:46:14.001Z,55.22
2023-02-10T06:48:40.928Z,48.42
2023-02-10T06:51:07.882Z,42.13
2023-02-10T06:53:34.840Z,48.72
2023-02-10T06:56:01.832Z,45.72
2023-02-10T06:58:28.834Z,51.15
2023-02-10T07:00:55.817Z,52.15
2023-02-10T07:03:22.753Z,46.75
2023-02-10T07:05:50.233Z,42.08
2023-02-10T07:08:17.807Z,47.67
2023-02-10T07:10:44.730Z,45.88
2023-02-10T07:13:11.629Z,49.40
2023-02-10T07:15:38.548Z,52.47
2023-02-10T07:18:05.725Z,50.30
2023-02-10T07:20:32.814Z,53.05
2023-02-10T07:22:59.769Z,54.35
2023-02-10T07:25:26.907Z,47.33
2023-02-10T07:27:53.830Z,45.55
2023-02-10T07:30:20.963Z,52.83
2023-02-10T07:32:47.788Z,49.45
2023-02-10T07:35:15.037Z,37.47
2023-02-10T07:37:41.986Z,43.58
2023-02-10T07:40:10.845Z,56.55
2023-02-10T07:42:39.050Z,49.78
2023-02-10T07:45:34.820Z,50.53
2023-02-10T07:48:01.777Z,53.90
2023-02-10T07:50:31.010Z,49.03
2023-02-10T07:52:59.367Z,50.47
2023-02-10T07:55:26.271Z,51.50
2023-02-10T07:57:53.676Z,52.63
2023-02-10T08:00:20.926Z,57.13
2023-02-10T08:02:47.871Z,52.17
2023-02-10T08:05:14.854Z,46.50
2023-02-10T08:07:41.931Z,45.70
2023-02-10T08:10:08.990Z,50.63
2023-02-10T08:12:36.010Z,49.03
2023-02-10T08:15:03.036Z,44.85
2023-02-10T08:17:30.157Z,45.80
2023-02-10T08:19:57.254Z,44.75
2023-02-10T08:22:24.433Z,46.70
2023-02-10T08:24:51.548Z,54.70
2023-02-10T08:27:18.666Z,56.55
2023-02-10T08:29:45.558Z,49.17
2023-02-10T08:32:13.872Z,57.00
2023-02-10T08:34:40.779Z,53.30
2023-02-10T08:37:07.777Z,49.75
2023-02-10T08:39:34.714Z,47.08
2023-02-10T08:42:01.788Z,48.80
2023-02-10T08:44:28.915Z,43.35
2023-02-10T08:46:56.036Z,54.40
2023-02-10T08:49:25.327Z,42.55
2023-02-10T08:51:53.561Z,44.92
2023-02-10T08:54:21.087Z,48.22
2023-02-10T08:56:48.282Z,46.90
2023-02-10T08:59:15.656Z,47.88
2023-02-10T09:01:42.866Z,42.15
2023-02-10T09:04:09.877Z,46.10
2023-02-10T09:06:41.521Z,41.45
2023-02-10T09:09:13.975Z,40.15
2023-02-10T09:11:42.924Z,42.97
2023-02-10T09:14:10.268Z,64.85
2023-02-10T09:16:37.394Z,43.63
2023-02-10T09:19:05.083Z,41.13
2023-02-10T09:21:45.676Z,39.85
2023-02-10T09:24:14.090Z,41.05
2023-02-10T09:26:41.040Z,36.10
2023-02-10T09:29:08.999Z,37.75
2023-02-10T09:31:36.765Z,40.60
2023-02-10T09:34:04.421Z,42.30
2023-02-10T09:36:31.765Z,38.60
2023-02-10T09:38:58.800Z,36.78
2023-02-10T09:41:45.720Z,37.35
2023-02-10T09:44:34.182Z,35.40
2023-02-10T09:47:34.700Z,37.40
2023-02-10T09:50:10.086Z,39.50
2023-02-10T09:52:56.317Z,36.63
2023-02-10T09:55:36.231Z,38.35
2023-02-10T09:58:12.487Z,46.72
2023-02-10T10:00:45.808Z,34.92
2023-02-10T10:03:26.832Z,36.50
2023-02-10T10:06:08.690Z,36.20
2023-02-10T10:09:08.996Z,33.78
2023-02-10T10:12:05.597Z,36.70
2023-02-10T10:14:39.484Z,37.63
2023-02-10T10:17:28.137Z,31.08
2023-02-10T10:20:06.823Z,30.42
2023-02-10T10:22:50.356Z,34.25
2023-02-10T10:25:54.464Z,32.85
2023-02-10T10:28:35.274Z,26.92
2023-02-10T10:31:15.010Z,27.70
2023-02-10T10:33:54.892Z,30.25
2023-02-10T10:36:34.013Z,31.55
2023-02-10T10:39:32.715Z,27.20
2023-02-10T10:42:05.916Z,27.30
2023-02-10T10:44:33.122Z,30.77
2023-02-10T10:47:16.390Z,27.48
2023-02-10T10:49:43.395Z,31.08
2023-02-10T10:52:32.996Z,25.30
2023-02-10T10:55:14.402Z,30.52
2023-02-10T10:57:41.655Z,22.92
2023-02-10T11:00:17.518Z,23.25
2023-02-10T11:03:03.714Z,25.55
2023-02-10T11:05:36.554Z,29.55
2023-02-10T11:08:07.118Z,29.98
2023-02-10T11:10:55.015Z,25.15
2023-02-10T11:13:28.672Z,28.65
2023-02-10T11:16:04.985Z,25.17
2023-02-10T11:18:32.492Z,23.50
2023-02-10T11:21:08.098Z,25.38
2023-02-10T11:23:51.814Z,20.83
2023-02-10T11:26:27.074Z,29.60
2023-02-10T11:28:55.647Z,23.92
2023-02-10T11:31:22.677Z,25.58
2023-02-10T11:34:21.606Z,29.23
2023-02-10T11:36:52.138Z,25.88
2023-02-10T11:39:44.257Z,24.77
2023-02-10T11:42:19.522Z,22.23
2023-02-10T11:45:17.339Z,29.00
2023-02-10T11:47:44.643Z,23.58
2023-02-10T11:50:26.147Z,21.73
2023-02-10T11:52:53.475Z,29.45
2023-02-10T11:55:25.770Z,29.40
2023-02-10T11:58:42.965Z,24.02
2023-02-10T12:01:21.557Z,26.40
2023-02-10T12:04:14.504Z,20.40
2023-02-10T12:07:39.275Z,26.83
2023-02-10T12:10:18.876Z,22.15
2023-02-10T12:12:56.322Z,21.33
2023-02-10T12:16:30.868Z,18.88
2023-02-10T12:19:03.638Z,20.67
2023-02-10T12:22:20.126Z,18.48
2023-02-10T12:25:24.267Z,20.67
2023-02-10T12:28:46.783Z,25.27
2023-02-10T12:32:13.726Z,21.27
2023-02-10T12:35:21.633Z,20.08
2023-02-10T12:38:03.755Z,19.27
2023-02-10T12:40:48.280Z,16.13
2023-02-10T12:43:36.276Z,18.58
2023-02-10T12:46:12.235Z,21.13
2023-02-10T12:49:00.932Z,16.73
2023-02-10T12:52:13.753Z,19.25
2023-02-10T12:54:52.443Z,17.65
2023-02-10T12:57:46.414Z,18.58
2023-02-10T13:00:29.054Z,16.92
2023-02-10T13:03:06.082Z,21.70
2023-02-10T13:06:16.466Z,18.58
2023-02-10T13:08:52.091Z,18.25
2023-02-10T13:11:36.427Z,21.02
2023-02-10T13:14:12.746Z,22.63
2023-02-10T13:16:39.943Z,20.23
2023-02-10T13:19:41.303Z,15.77
2023-02-10T13:22:32.498Z,20.45
2023-02-10T13:25:42.864Z,17.25
2023-02-10T13:28:49.615Z,17.23
2023-02-10T13:31:53.662Z,16.58
2023-02-10T13:34:24.785Z,15.43
2023-02-10T13:36:57.317Z,36.88
2023-02-10T13:39:29.664Z,14.13
2023-02-10T13:42:21.101Z,14.93
2023-02-10T13:45:00.319Z,13.68
2023-02-10T13:48:02.506Z,18.50
2023-02-10T13:50:53.927Z,12.98
2023-02-10T13:53:35.757Z,15.55
2023-02-10T13:56:20.813Z,22.33
2023-02-10T13:58:55.817Z,16.00
2023-02-10T14:01:50.121Z,13.88
2023-02-10T14:04:19.998Z,14.90
2023-02-10T14:06:52.699Z,15.18
2023-02-10T14:09:30.016Z,16.70
2023-02-10T14:12:00.455Z,16.67
2023-02-10T14:14:41.010Z,19.27
2023-02-10T14:17:25.160Z,22.38
2023-02-10T14:19:53.306Z,15.32
2023-02-10T14:22:39.349Z,13.35
2023-02-10T14:25:30.313Z,14.43
2023-02-10T14:27:57.912Z,13.43
2023-02-10T14:30:35.009Z,13.25
2023-02-10T14:33:02.120Z,11.70
2023-02-10T14:35:30.350Z,16.42
2023-02-10T14:37:59.900Z,15.23
2023-02-10T14:40:29.930Z,21.23
2023-02-10T14:43:00.654Z,13.43
2023-02-10T14:45:29.006Z,13.95
2023-02-10T14:47:59.311Z,10.80
2023-02-10T14:50:34.196Z,12.88
2023-02-10T14:53:04.252Z,11.65
2023-02-10T14:55:39.503Z,11.48
2023-02-10T14:58:11.593Z,12.60
2023-02-10T15:00:41.685Z,11.70
2023-02-10T15:03:13.744Z,14.02
2023-02-10T15:05:48.715Z,18.00
2023-02-10T15:08:43.526Z,23.08
2023-02-10T15:11:40.922Z,13.52
2023-02-10T15:14:17.617Z,12.38
2023-02-10T15:16:46.716Z,14.02
2023-02-10T15:19:17.231Z,15.55
2023-02-10T15:21:47.348Z,16.23
2023-02-10T15:24:34.837Z,17.52
2023-02-10T15:29:50.009Z,13.95
2023-02-10T15:32:23.141Z,14.38
2023-02-10T15:34:53.874Z,17.40
2023-02-10T15:37:25.233Z,11.77
2023-02-10T15:39:58.839Z,16.58
2023-02-10T15:42:33.792Z,21.00
2023-02-10T15:45:17.326Z,17.17
2023-02-10T15:48:00.142Z,16.65
2023-02-10T15:50:28.750Z,16.52
2023-02-10T15:52:55.842Z,21.90
2023-02-10T15:55:37.286Z,15.20
2023-02-10T16:00:37.902Z,16.75
2023-02-10T16:03:07.029Z,14.25
2023-02-10T16:08:33.075Z,15.85
2023-02-10T16:11:03.120Z,16.13
2023-02-10T16:13:30.333Z,15.48
2023-02-10T16:15:57.485Z,17.38
2023-02-10T16:18:27.481Z,14.57
2023-02-10T16:20:54.366Z,18.30
2023-02-10T16:23:21.698Z,19.08
2023-02-10T16:25:50.620Z,18.73
2023-02-10T16:28:19.867Z,19.75
2023-02-10T16:33:16.027Z,16.50
2023-02-10T16:35:43.249Z,18.98
2023-02-10T16:38:17.474Z,30.77
2023-02-10T16:40:45.601Z,17.67
2023-02-10T16:43:12.554Z,25.20
2023-02-10T16:45:39.477Z,20.45
2023-02-10T16:48:06.434Z,17.25
2023-02-10T16:50:41.819Z,21.95
2023-02-10T16:53:10.309Z,16.70
2023-02-10T16:55:39.745Z,17.88
2023-02-10T16:58:08.080Z,14.10
2023-02-10T17:00:35.191Z,19.42
2023-02-10T17:03:02.249Z,19.98
2023-02-10T17:05:30.524Z,19.80
2023-02-10T17:07:57.481Z,18.58
2023-02-10T17:10:28.766Z,21.70
2023-02-10T17:12:56.205Z,15.93
2023-02-10T17:15:24.006Z,15.73
2023-02-10T17:17:51.441Z,19.35
2023-02-10T17:20:32.034Z,14.30
2023-02-10T17:22:59.333Z,19.38
2023-02-10T17:25:26.343Z,21.05
2023-02-10T17:27:53.779Z,17.02
2023-02-10T17:30:24.400Z,19.92
2023-02-10T17:32:52.230Z,25.35
2023-02-10T17:35:22.175Z,26.10
2023-02-10T17:37:50.318Z,21.98
2023-02-10T17:40:25.358Z,22.20
2023-02-10T17:42:53.003Z,25.35
2023-02-10T17:45:19.997Z,23.98
2023-02-10T17:47:47.418Z,25.50
2023-02-10T17:50:16.615Z,22.20
2023-02-10T17:52:43.690Z,16.85
2023-02-10T17:55:21.636Z,20.88
2023-02-10T17:57:50.101Z,18.63
2023-02-10T18:00:18.012Z,23.08
2023-02-10T18:02:47.004Z,24.80
2023-02-10T18:05:13.870Z,21.35
2023-02-10T18:07:40.791Z,22.67
2023-02-10T18:10:08.294Z,25.60
2023-02-10T18:12:35.289Z,26.13
2023-02-10T18:15:02.218Z,25.38
2023-02-10T18:17:30.373Z,20.95
2023-02-10T18:19:57.278Z,23.58
2023-02-10T18:22:24.298Z,29.15
2023-02-10T18:24:51.144Z,25.98
2023-02-10T18:27:18.166Z,21.05
2023-02-10T18:29:45.518Z,25.50
2023-02-10T18:32:12.572Z,25.35
2023-02-10T18:34:39.965Z,25.10
2023-02-10T18:37:06.980Z,29.90
2023-02-10T18:39:33.950Z,26.17
2023-02-10T18:42:00.887Z,40.35
2023-02-10T18:44:28.007Z,28.02
2023-02-10T18:46:54.925Z,27.55
2023-02-10T18:49:21.823Z,25.90
2023-02-10T18:51:53.710Z,24.63
2023-02-10T18:54:23.752Z,25.05
2023-02-10T18:56:50.627Z,25.42
2023-02-10T18:59:18.940Z,26.80
2023-02-10T19:01:45.807Z,30.27
2023-02-10T19:04:12.760Z,29.55
2023-02-10T19:06:39.799Z,28.40
2023-02-10T19:09:06.769Z,32.45
2023-02-10T19:11:33.686Z,23.38
2023-02-10T19:14:01.047Z,26.95
2023-02-10T19:16:28.582Z,29.45
2023-02-10T19:18:55.539Z,33.95
2023-02-10T19:21:22.523Z,30.15
2023-02-10T19:23:49.954Z,27.77
2023-02-10T19:26:17.053Z,30.95
2023-02-10T19:28:44.457Z,31.73
2023-02-10T19:31:14.370Z,27.25
2023-02-10T19:33:49.438Z,24.83
2023-02-10T19:36:19.318Z,24.83
2023-02-10T19:38:46.240Z,24.10
2023-02-10T19:41:18.087Z,23.85
2023-02-10T19:43:46.634Z,21.88
2023-02-10T19:46:15.904Z,23.42
2023-02-10T19:51:16.832Z,26.35
2023-02-10T19:53:45.789Z,22.08
2023-02-10T19:56:13.343Z,20.65
2023-02-10T19:58:40.248Z,18.13
2023-02-10T20:01:17.242Z,21.58
2023-02-10T20:03:53.984Z,18.63
2023-02-10T20:06:26.042Z,21.55
2023-02-10T20:08:53.695Z,24.20
2023-02-10T20:11:21.240Z,23.02
2023-02-10T20:13:49.062Z,23.02
2023-02-10T20:16:16.709Z,21.70
2023-02-10T20:18:43.739Z,19.25
2023-02-10T20:21:11.330Z,20.70
2023-02-10T20:23:41.548Z,17.15
2023-02-10T20:26:11.758Z,18.55
2023-02-10T20:28:38.851Z,20.25
2023-02-10T20:31:06.683Z,23.55
2023-02-10T20:33:33.866Z,19.92
2023-02-10T20:36:06.084Z,18.08
2023-02-10T20:38:35.389Z,23.02
2023-02-10T20:41:05.212Z,20.70
2023-02-10T20:43:32.167Z,20.20
2023-02-10T20:45:59.310Z,21.27
2023-02-10T20:48:27.388Z,20.92
2023-02-10T20:51:07.605Z,22.00
2023-02-10T20:53:38.291Z,22.23
2023-02-10T20:56:06.554Z,20.50
2023-02-10T20:58:33.973Z,23.15
2023-02-10T21:01:04.402Z,20.60
2023-02-10T21:03:32.514Z,27.80
2023-02-10T21:06:26.047Z,21.88
2023-02-10T21:08:55.889Z,26.65
2023-02-10T21:11:27.455Z,20.88
2023-02-10T21:13:55.100Z,23.45
2023-02-10T21:16:23.338Z,21.63
2023-02-10T21:18:50.857Z,23.85
2023-02-10T21:21:19.407Z,31.73
2023-02-10T21:23:47.207Z,23.88
2023-02-10T21:26:14.837Z,20.95
2023-02-10T21:28:41.848Z,23.90
2023-02-10T21:31:18.488Z,23.15
2023-02-10T21:33:45.474Z,31.25
2023-02-10T21:36:26.162Z,28.15
2023-02-10T21:38:56.413Z,26.73
2023-02-10T21:41:44.550Z,27.50
2023-02-10T21:44:21.867Z,22.70
2023-02-10T21:46:53.527Z,26.48
2023-02-10T21:49:22.697Z,27.27
2023-02-10T21:51:50.608Z,23.55
2023-02-10T21:54:17.919Z,24.83
2023-02-10T21:56:45.145Z,28.40
2023-02-10T21:59:13.852Z,24.23
2023-02-10T22:01:41.495Z,25.98
2023-02-10T22:04:09.498Z,27.75
2023-02-10T22:06:40.016Z,22.77
2023-02-10T22:09:09.590Z,25.02
2023-02-10T22:11:36.515Z,27.27
2023-02-10T22:14:03.768Z,26.08
2023-02-10T22:16:30.999Z,26.38
2023-02-10T22:18:58.093Z,30.42
2023-02-10T22:21:29.251Z,28.60
2023-02-10T22:23:57.121Z,28.70
2023-02-10T22:26:27.356Z,29.83
2023-02-10T22:28:55.355Z,38.28
2023-02-10T22:31:26.312Z,23.60
2023-02-10T22:33:57.217Z,31.13
2023-02-10T22:36:26.156Z,31.13
2023-02-10T22:38:53.796Z,34.63
2023-02-10T22:41:26.962Z,30.52
2023-02-10T22:43:56.433Z,25.33
2023-02-10T22:46:23.351Z,25.27
2023-02-10T22:48:52.041Z,28.55
2023-02-10T22:51:24.008Z,32.47
2023-02-10T22:54:08.648Z,30.27
2023-02-10T22:56:38.480Z,27.92
2023-02-10T22:59:06.493Z,33.10
2023-02-10T23:01:42.888Z,27.90
2023-02-10T23:04:13.960Z,29.85
2023-02-10T23:06:41.128Z,37.13
2023-02-10T23:09:11.396Z,28.92
2023-02-10T23:11:45.406Z,31.63
2023-02-10T23:14:12.622Z,30.40
2023-02-10T23:16:39.788Z,32.88
2023-02-10T23:19:07.243Z,35.92
2023-02-10T23:21:34.382Z,35.50
2023-02-10T23:24:01.371Z,28.30
2023-02-10T23:26:34.064Z,34.38
2023-02-10T23:29:11.821Z,36.35
2023-02-10T23:31:39.044Z,35.30
2023-02-10T23:34:06.027Z,32.45
2023-02-10T23:36:33.048Z,35.28
2023-02-10T23:39:02.129Z,38.63
2023-02-10T23:43:55.886Z,32.45
2023-02-10T23:46:23.208Z,35.63
2023-02-10T23:48:50.125Z,36.83
2023-02-10T23:51:20.219Z,34.88
2023-02-10T23:53:49.190Z,37.67
2023-02-10T23:56:20.414Z,37.20
2023-02-10T23:58:51.575Z,35.13
